Capitol Logistics 2346

Operating for ABX



SKBO
El Nuevo Dorado International Airport
Bogota, CO
KMIA
Miami International Airport
Miami, US

Activity Log

Date Flight Route Aircraft Duration
02/07/2021 CPX626 UCA UA301 URSUS FLIPR5 B763 3h 41m
01/31/2021 CPX626 UCA UA301 URSUS FLIPR5 B763 3h 39m
01/30/2021 CPX626 UCA UA301 URSUS FLIPR5 B763 3h 39m
04/05/2020 CPX626 UCA UA301 URSUS FLIPR5 B763 3h 37m
01/05/2020 CPX626 UCA UA301 URSUS FLIPR5 B763 3h 33m

Route Details

Aircraft Information
Group: Boeing 767
Types: B762,B763
Route Data
Demand: V
Distance: 1316nm
Duration: 3h 16m
Recm'd Route: ALTIB UM779 ZEUSS VIICE1
Origin Wx: SKBO 270700Z 05007KT 9999 FEW017 BKN070 11/09 Q1027 NOSIG RMK A3035
Dest. Wx: KMIA 270653Z 11005KT 10SM FEW060 SCT090 26/23 A3002 RMK AO2 SLP166 T02560228 $
Notes:

Financial History
Total Freight: 478,586lbs
Average Load: 95,717lbs/flt
Fuel Used: 180,387lbs
Avg. Fuel Used: 36,077lbs/flt
Fuel Expense: $144,310
Avg. Fuel Expense: $28,862
Avg. Fuel Cost: $0.80/lbs
Total Gross Income: $1,005,030
Pilot Pay: $775
Total Expenses: $108,803
Total Revenue: $748,836
Average Revenue: $201,006.00